San Diego, California
Current Conditions -  °F | °C
As of 10:51 PM on Friday 24 Oct 2014 (Local Time) from KSAN Reporting Station
Clear Clear  
Wind Chill: 22°   Ceiling: Unl
Heat Index: 22°   Visibility: 7mi
Dew Point: 19°   Wind: 0mph
Humidity: 84%   Direction: NA
Pressure: 30"   Gusts: NA
Location:  32.72°N, 117.16°W
Report Text: KSAN 250551Z 00000KT 7SM CLR 22/19 A3000 RMK AO2 SLP158 T02170189 10261 20217 53012 $
Loading
Personal Weather Stations






























Interactive Weather Map
Tropical Storm Tracking
New forecast layout! Learn more

10-Day Weather Forecast

Advertisements
Track Severe Weather on mobile